sensor_id;sensor_type;location;lat;lon;timestamp;pressure;altitude;pressure_sealevel;temperature;humidity
48846;BME280;34665;51.886;5.436;2023-02-14T00:00:34;103299.72;;;15.66;75.79
48846;BME280;34665;51.886;5.436;2023-02-14T00:02:59;103296.03;;;15.50;75.54
48846;BME280;34665;51.886;5.436;2023-02-14T00:05:25;103296.69;;;15.77;74.95
48846;BME280;34665;51.886;5.436;2023-02-14T00:07:50;103292.66;;;15.65;75.42
48846;BME280;34665;51.886;5.436;2023-02-14T00:10:16;103290.66;;;15.50;75.64
48846;BME280;34665;51.886;5.436;2023-02-14T00:12:41;103303.94;;;15.68;75.71
48846;BME280;34665;51.886;5.436;2023-02-14T00:15:08;103294.31;;;15.82;74.74
48846;BME280;34665;51.886;5.436;2023-02-14T00:17:48;103292.47;;;15.74;75.24
48846;BME280;34665;51.886;5.436;2023-02-14T00:20:14;103287.44;;;15.63;75.59
48846;BME280;34665;51.886;5.436;2023-02-14T00:22:39;103286.59;;;15.54;76.04
48846;BME280;34665;51.886;5.436;2023-02-14T00:25:05;103285.41;;;15.65;75.57
48846;BME280;34665;51.886;5.436;2023-02-14T00:27:30;103281.88;;;15.56;75.52
48846;BME280;34665;51.886;5.436;2023-02-14T00:29:59;103282.69;;;15.57;75.50
48846;BME280;34665;51.886;5.436;2023-02-14T00:32:28;103287.59;;;15.53;75.57
48846;BME280;34665;51.886;5.436;2023-02-14T00:34:54;103289.28;;;15.54;75.46
48846;BME280;34665;51.886;5.436;2023-02-14T00:37:20;103289.44;;;15.44;75.78
48846;BME280;34665;51.886;5.436;2023-02-14T00:39:46;103284.25;;;15.51;75.44
48846;BME280;34665;51.886;5.436;2023-02-14T00:42:12;103285.91;;;15.60;75.05
48846;BME280;34665;51.886;5.436;2023-02-14T00:44:39;103282.22;;;15.53;75.47
48846;BME280;34665;51.886;5.436;2023-02-14T00:47:05;103271.75;;;15.42;75.78
48846;BME280;34665;51.886;5.436;2023-02-14T00:49:30;103282.03;;;15.55;75.79
48846;BME280;34665;51.886;5.436;2023-02-14T00:51:57;103283.22;;;15.27;76.71
48846;BME280;34665;51.886;5.436;2023-02-14T00:54:23;103281.53;;;15.34;77.44
48846;BME280;34665;51.886;5.436;2023-02-14T00:56:49;103272.06;;;15.05;78.66
48846;BME280;34665;51.886;5.436;2023-02-14T00:59:15;103268.66;;;14.87;79.86
48846;BME280;34665;51.886;5.436;2023-02-14T01:01:41;103277.41;;;14.97;81.49
48846;BME280;34665;51.886;5.436;2023-02-14T01:04:08;103281.69;;;15.25;79.64
48846;BME280;34665;51.886;5.436;2023-02-14T01:06:33;103275.78;;;15.04;81.33
48846;BME280;34665;51.886;5.436;2023-02-14T01:08:59;103278.81;;;15.10;80.63
48846;BME280;34665;51.886;5.436;2023-02-14T01:11:25;103274.72;;;14.97;81.63
48846;BME280;34665;51.886;5.436;2023-02-14T01:13:54;103279.44;;;14.95;81.95
48846;BME280;34665;51.886;5.436;2023-02-14T01:16:23;103284.53;;;14.63;83.83
48846;BME280;34665;51.886;5.436;2023-02-14T01:18:50;103285.72;;;14.61;84.78
48846;BME280;34665;51.886;5.436;2023-02-14T01:21:19;103275.91;;;14.52;85.29
48846;BME280;34665;51.886;5.436;2023-02-14T01:23:48;103271.56;;;14.59;85.34
48846;BME280;34665;51.886;5.436;2023-02-14T01:26:14;103269.09;;;14.66;85.14
48846;BME280;34665;51.886;5.436;2023-02-14T01:28:40;103277.22;;;14.74;84.43
48846;BME280;34665;51.886;5.436;2023-02-14T01:31:15;103270.06;;;14.65;84.48
48846;BME280;34665;51.886;5.436;2023-02-14T01:33:42;103271.41;;;14.60;84.65
48846;BME280;34665;51.886;5.436;2023-02-14T01:36:24;103261.47;;;14.61;84.43
48846;BME280;34665;51.886;5.436;2023-02-14T01:38:52;103270.34;;;14.45;85.21
48846;BME280;34665;51.886;5.436;2023-02-14T01:41:19;103264.50;;;14.58;84.82
48846;BME280;34665;51.886;5.436;2023-02-14T01:43:51;103257.94;;;14.60;84.46
48846;BME280;34665;51.886;5.436;2023-02-14T01:46:16;103263.81;;;14.56;84.88
48846;BME280;34665;51.886;5.436;2023-02-14T01:48:42;103260.38;;;14.72;83.93
48846;BME280;34665;51.886;5.436;2023-02-14T01:51:08;103260.72;;;14.42;84.54
48846;BME280;34665;51.886;5.436;2023-02-14T01:53:34;103267.78;;;14.35;85.05
48846;BME280;34665;51.886;5.436;2023-02-14T01:56:07;103264.13;;;14.53;84.52
48846;BME280;34665;51.886;5.436;2023-02-14T01:58:36;103263.41;;;14.34;84.84
48846;BME280;34665;51.886;5.436;2023-02-14T02:01:03;103264.66;;;14.22;86.59
48846;BME280;34665;51.886;5.436;2023-02-14T02:03:42;103262.50;;;14.25;86.33
48846;BME280;34665;51.886;5.436;2023-02-14T02:06:13;103263.78;;;14.13;86.21
48846;BME280;34665;51.886;5.436;2023-02-14T02:08:43;103259.50;;;14.28;85.79
48846;BME280;34665;51.886;5.436;2023-02-14T02:11:12;103255.56;;;13.88;89.03
48846;BME280;34665;51.886;5.436;2023-02-14T02:13:37;103256.13;;;14.26;87.36
48846;BME280;34665;51.886;5.436;2023-02-14T02:16:26;103253.81;;;14.40;86.02
48846;BME280;34665;51.886;5.436;2023-02-14T02:22:00;103255.03;;;14.45;85.21
48846;BME280;34665;51.886;5.436;2023-02-14T02:37:46;103249.25;;;14.32;85.01
48846;BME280;34665;51.886;5.436;2023-02-14T02:40:25;103246.38;;;14.33;84.60
48846;BME280;34665;51.886;5.436;2023-02-14T02:46:02;103245.47;;;14.16;85.29
48846;BME280;34665;51.886;5.436;2023-02-14T02:54:32;103248.44;;;14.05;86.71
48846;BME280;34665;51.886;5.436;2023-02-14T02:57:03;103244.22;;;14.02;86.18
48846;BME280;34665;51.886;5.436;2023-02-14T02:59:34;103242.09;;;14.14;85.59
48846;BME280;34665;51.886;5.436;2023-02-14T03:02:10;103241.53;;;14.02;86.40
48846;BME280;34665;51.886;5.436;2023-02-14T03:04:39;103246.06;;;14.02;86.68
48846;BME280;34665;51.886;5.436;2023-02-14T03:07:23;103247.81;;;14.11;85.78
48846;BME280;34665;51.886;5.436;2023-02-14T03:10:16;103251.19;;;14.13;85.56
48846;BME280;34665;51.886;5.436;2023-02-14T03:15:38;103242.97;;;13.88;86.86
48846;BME280;34665;51.886;5.436;2023-02-14T03:18:38;103243.59;;;13.82;86.69
48846;BME280;34665;51.886;5.436;2023-02-14T03:21:25;103234.50;;;13.83;87.14
48846;BME280;34665;51.886;5.436;2023-02-14T03:24:01;103223.63;;;13.85;86.82
48846;BME280;34665;51.886;5.436;2023-02-14T03:26:47;103225.97;;;13.88;86.67
48846;BME280;34665;51.886;5.436;2023-02-14T03:29:25;103238.53;;;13.79;86.84
48846;BME280;34665;51.886;5.436;2023-02-14T03:34:37;103235.34;;;13.75;87.61
48846;BME280;34665;51.886;5.436;2023-02-14T03:37:12;103241.00;;;13.28;91.29
48846;BME280;34665;51.886;5.436;2023-02-14T03:39:47;103229.84;;;13.04;92.20
48846;BME280;34665;51.886;5.436;2023-02-14T03:42:18;103237.44;;;13.27;91.89
48846;BME280;34665;51.886;5.436;2023-02-14T03:44:48;103239.31;;;13.45;90.38
48846;BME280;34665;51.886;5.436;2023-02-14T03:47:20;103238.97;;;12.94;92.47
48846;BME280;34665;51.886;5.436;2023-02-14T03:49:52;103237.06;;;13.22;92.12
48846;BME280;34665;51.886;5.436;2023-02-14T03:52:20;103238.34;;;13.36;90.66
48846;BME280;34665;51.886;5.436;2023-02-14T03:54:48;103232.41;;;13.06;91.71
48846;BME280;34665;51.886;5.436;2023-02-14T03:57:24;103236.75;;;13.25;90.14
48846;BME280;34665;51.886;5.436;2023-02-14T03:59:52;103242.03;;;12.81;92.86
48846;BME280;34665;51.886;5.436;2023-02-14T04:04:45;103233.19;;;12.42;96.06
48846;BME280;34665;51.886;5.436;2023-02-14T04:07:14;103227.31;;;11.91;100.00
48846;BME280;34665;51.886;5.436;2023-02-14T04:09:40;103227.56;;;11.98;100.00
48846;BME280;34665;51.886;5.436;2023-02-14T04:12:06;103231.31;;;11.77;100.00
48846;BME280;34665;51.886;5.436;2023-02-14T04:14:32;103236.25;;;12.19;100.00
48846;BME280;34665;51.886;5.436;2023-02-14T04:16:58;103240.59;;;11.83;100.00
48846;BME280;34665;51.886;5.436;2023-02-14T04:19:42;103237.50;;;11.77;100.00
48846;BME280;34665;51.886;5.436;2023-02-14T04:22:07;103241.72;;;11.80;100.00
48846;BME280;34665;51.886;5.436;2023-02-14T04:24:33;103242.56;;;11.81;100.00
48846;BME280;34665;51.886;5.436;2023-02-14T04:26:58;103233.50;;;11.91;100.00
48846;BME280;34665;51.886;5.436;2023-02-14T04:29:37;103231.81;;;11.90;100.00
48846;BME280;34665;51.886;5.436;2023-02-14T04:32:03;103237.25;;;12.18;100.00
48846;BME280;34665;51.886;5.436;2023-02-14T04:34:29;103235.16;;;12.12;100.00
48846;BME280;34665;51.886;5.436;2023-02-14T04:36:54;103237.13;;;12.20;100.00
48846;BME280;34665;51.886;5.436;2023-02-14T04:39:19;103226.84;;;11.96;100.00
48846;BME280;34665;51.886;5.436;2023-02-14T04:41:45;103235.72;;;11.58;100.00
48846;BME280;34665;51.886;5.436;2023-02-14T04:44:10;103232.06;;;12.17;99.57
48846;BME280;34665;51.886;5.436;2023-02-14T04:46:36;103225.44;;;12.39;97.99
48846;BME280;34665;51.886;5.436;2023-02-14T04:49:01;103224.41;;;12.50;96.44
48846;BME280;34665;51.886;5.436;2023-02-14T04:51:27;103220.38;;;12.36;97.10
48846;BME280;34665;51.886;5.436;2023-02-14T04:53:52;103223.34;;;12.61;94.61
48846;BME280;34665;51.886;5.436;2023-02-14T04:56:18;103222.97;;;12.56;94.72
48846;BME280;34665;51.886;5.436;2023-02-14T04:58:44;103217.59;;;12.28;97.02
48846;BME280;34665;51.886;5.436;2023-02-14T05:01:09;103218.38;;;12.10;98.06
48846;BME280;34665;51.886;5.436;2023-02-14T05:03:35;103219.28;;;12.29;97.20
48846;BME280;34665;51.886;5.436;2023-02-14T05:06:01;103218.28;;;12.02;97.85
48846;BME280;34665;51.886;5.436;2023-02-14T05:08:26;103218.50;;;12.09;98.02
48846;BME280;34665;51.886;5.436;2023-02-14T05:10:53;103213.03;;;11.90;98.81
48846;BME280;34665;51.886;5.436;2023-02-14T05:13:19;103204.84;;;11.35;100.00
48846;BME280;34665;51.886;5.436;2023-02-14T05:15:44;103216.06;;;11.77;100.00
48846;BME280;34665;51.886;5.436;2023-02-14T05:18:10;103217.59;;;11.80;100.00
48846;BME280;34665;51.886;5.436;2023-02-14T05:20:35;103208.84;;;11.88;100.00
48846;BME280;34665;51.886;5.436;2023-02-14T05:23:01;103208.44;;;11.73;100.00
48846;BME280;34665;51.886;5.436;2023-02-14T05:25:28;103209.84;;;11.77;100.00
48846;BME280;34665;51.886;5.436;2023-02-14T05:27:54;103210.38;;;11.90;100.00
48846;BME280;34665;51.886;5.436;2023-02-14T05:30:20;103207.50;;;11.54;100.00
48846;BME280;34665;51.886;5.436;2023-02-14T05:32:53;103211.91;;;12.03;98.09
48846;BME280;34665;51.886;5.436;2023-02-14T05:35:18;103209.78;;;11.97;96.78
48846;BME280;34665;51.886;5.436;2023-02-14T05:37:44;103202.91;;;12.32;94.82
48846;BME280;34665;51.886;5.436;2023-02-14T05:40:10;103205.38;;;12.43;93.67
48846;BME280;34665;51.886;5.436;2023-02-14T05:42:39;103205.75;;;12.21;92.91
48846;BME280;34665;51.886;5.436;2023-02-14T05:45:05;103205.13;;;12.37;92.74
48846;BME280;34665;51.886;5.436;2023-02-14T05:47:31;103205.97;;;12.37;92.42
48846;BME280;34665;51.886;5.436;2023-02-14T05:49:56;103207.66;;;12.38;91.64
48846;BME280;34665;51.886;5.436;2023-02-14T05:52:22;103212.59;;;12.15;92.65
48846;BME280;34665;51.886;5.436;2023-02-14T05:54:47;103202.50;;;12.27;92.04
48846;BME280;34665;51.886;5.436;2023-02-14T05:57:13;103216.69;;;12.37;92.67
48846;BME280;34665;51.886;5.436;2023-02-14T05:59:38;103210.28;;;12.20;92.97
48846;BME280;34665;51.886;5.436;2023-02-14T06:02:04;103214.53;;;12.23;93.51
48846;BME280;34665;51.886;5.436;2023-02-14T06:04:30;103211.00;;;12.22;93.52
48846;BME280;34665;51.886;5.436;2023-02-14T06:06:55;103213.97;;;12.19;93.90
48846;BME280;34665;51.886;5.436;2023-02-14T06:09:20;103213.75;;;12.02;95.52
48846;BME280;34665;51.886;5.436;2023-02-14T06:11:46;103218.69;;;12.07;95.34
48846;BME280;34665;51.886;5.436;2023-02-14T06:14:11;103216.91;;;11.78;98.66
48846;BME280;34665;51.886;5.436;2023-02-14T06:16:37;103210.59;;;11.50;100.00
48846;BME280;34665;51.886;5.436;2023-02-14T06:19:03;103217.16;;;11.75;98.99
48846;BME280;34665;51.886;5.436;2023-02-14T06:21:28;103219.44;;;11.70;98.27
48846;BME280;34665;51.886;5.436;2023-02-14T06:23:54;103223.97;;;11.79;98.19
48846;BME280;34665;51.886;5.436;2023-02-14T06:26:19;103217.78;;;11.59;98.45
48846;BME280;34665;51.886;5.436;2023-02-14T06:28:44;103221.84;;;11.63;98.76
48846;BME280;34665;51.886;5.436;2023-02-14T06:31:16;103220.81;;;11.84;97.30
48846;BME280;34665;51.886;5.436;2023-02-14T06:33:42;103224.75;;;11.89;95.53
48846;BME280;34665;51.886;5.436;2023-02-14T06:36:08;103231.34;;;11.57;97.64
48846;BME280;34665;51.886;5.436;2023-02-14T06:38:33;103226.09;;;11.56;98.83
48846;BME280;34665;51.886;5.436;2023-02-14T06:41:06;103224.00;;;11.40;99.57
48846;BME280;34665;51.886;5.436;2023-02-14T06:43:32;103224.53;;;11.53;99.36
48846;BME280;34665;51.886;5.436;2023-02-14T06:45:57;103226.50;;;11.71;96.67
48846;BME280;34665;51.886;5.436;2023-02-14T06:48:23;103227.97;;;11.36;98.11
48846;BME280;34665;51.886;5.436;2023-02-14T06:50:48;103230.47;;;11.57;98.01
48846;BME280;34665;51.886;5.436;2023-02-14T06:53:14;103233.31;;;11.45;96.61
48846;BME280;34665;51.886;5.436;2023-02-14T06:55:40;103236.94;;;11.74;93.05
48846;BME280;34665;51.886;5.436;2023-02-14T06:58:05;103234.84;;;11.58;94.43
48846;BME280;34665;51.886;5.436;2023-02-14T07:00:30;103235.81;;;11.67;93.76
48846;BME280;34665;51.886;5.436;2023-02-14T07:02:56;103239.47;;;11.75;93.30
48846;BME280;34665;51.886;5.436;2023-02-14T07:05:22;103230.88;;;11.72;93.67
48846;BME280;34665;51.886;5.436;2023-02-14T07:07:47;103236.69;;;11.57;95.13
48846;BME280;34665;51.886;5.436;2023-02-14T07:10:14;103225.69;;;11.41;97.57
48846;BME280;34665;51.886;5.436;2023-02-14T07:12:40;103234.72;;;11.59;97.50
48846;BME280;34665;51.886;5.436;2023-02-14T07:15:07;103230.56;;;11.75;96.63
48846;BME280;34665;51.886;5.436;2023-02-14T07:17:33;103226.53;;;11.51;98.04
48846;BME280;34665;51.886;5.436;2023-02-14T07:19:58;103224.53;;;11.53;98.36
48846;BME280;34665;51.886;5.436;2023-02-14T07:22:24;103228.25;;;11.42;99.85
48846;BME280;34665;51.886;5.436;2023-02-14T07:24:49;103227.78;;;11.57;99.13
48846;BME280;34665;51.886;5.436;2023-02-14T07:27:16;103228.50;;;11.49;100.00
48846;BME280;34665;51.886;5.436;2023-02-14T07:29:41;103234.28;;;10.95;100.00
48846;BME280;34665;51.886;5.436;2023-02-14T07:32:07;103237.53;;;11.48;100.00
48846;BME280;34665;51.886;5.436;2023-02-14T07:34:32;103240.88;;;11.70;98.96
48846;BME280;34665;51.886;5.436;2023-02-14T07:36:58;103231.56;;;11.74;97.60
48846;BME280;34665;51.886;5.436;2023-02-14T07:39:23;103235.13;;;11.55;99.91
48846;BME280;34665;51.886;5.436;2023-02-14T07:41:48;103235.84;;;11.47;99.65
48846;BME280;34665;51.886;5.436;2023-02-14T07:44:17;103235.84;;;11.57;99.69
48846;BME280;34665;51.886;5.436;2023-02-14T07:46:43;103238.69;;;11.55;100.00
48846;BME280;34665;51.886;5.436;2023-02-14T07:49:09;103242.66;;;11.99;97.82
48846;BME280;34665;51.886;5.436;2023-02-14T07:51:34;103237.25;;;11.51;100.00
48846;BME280;34665;51.886;5.436;2023-02-14T07:54:00;103233.56;;;11.72;100.00
48846;BME280;34665;51.886;5.436;2023-02-14T07:56:25;103229.84;;;11.83;100.00
48846;BME280;34665;51.886;5.436;2023-02-14T07:58:51;103238.47;;;11.86;98.66
48846;BME280;34665;51.886;5.436;2023-02-14T08:01:17;103232.56;;;11.73;99.85
48846;BME280;34665;51.886;5.436;2023-02-14T08:03:43;103231.41;;;12.05;99.02
48846;BME280;34665;51.886;5.436;2023-02-14T08:06:10;103230.00;;;11.91;99.11
48846;BME280;34665;51.886;5.436;2023-02-14T08:08:36;103230.13;;;11.89;100.00
48846;BME280;34665;51.886;5.436;2023-02-14T08:11:02;103231.50;;;12.13;99.26
48846;BME280;34665;51.886;5.436;2023-02-14T08:13:28;103233.69;;;12.28;97.38
48846;BME280;34665;51.886;5.436;2023-02-14T08:15:54;103230.59;;;12.79;94.84
48846;BME280;34665;51.886;5.436;2023-02-14T08:18:30;103233.09;;;12.62;96.01
48846;BME280;34665;51.886;5.436;2023-02-14T08:20:56;103238.38;;;12.54;97.12
48846;BME280;34665;51.886;5.436;2023-02-14T08:23:21;103237.53;;;12.81;94.79
48846;BME280;34665;51.886;5.436;2023-02-14T08:25:48;103234.41;;;12.30;96.12
48846;BME280;34665;51.886;5.436;2023-02-14T08:28:13;103239.97;;;12.74;94.74
48846;BME280;34665;51.886;5.436;2023-02-14T08:30:40;103240.09;;;12.91;93.92
48846;BME280;34665;51.886;5.436;2023-02-14T08:33:06;103241.72;;;13.38;92.75
48846;BME280;34665;51.886;5.436;2023-02-14T08:35:32;103242.13;;;13.88;89.77
48846;BME280;34665;51.886;5.436;2023-02-14T08:37:58;103245.69;;;14.23;88.17
48846;BME280;34665;51.886;5.436;2023-02-14T08:40:23;103244.59;;;14.51;86.78
48846;BME280;34665;51.886;5.436;2023-02-14T08:42:49;103248.41;;;14.74;85.88
48846;BME280;34665;51.886;5.436;2023-02-14T08:45:15;103246.00;;;14.55;86.86
48846;BME280;34665;51.886;5.436;2023-02-14T08:47:40;103248.50;;;14.56;86.27
48846;BME280;34665;51.886;5.436;2023-02-14T08:50:11;103244.06;;;14.90;85.89
48846;BME280;34665;51.886;5.436;2023-02-14T08:52:39;103246.78;;;15.65;82.16
48846;BME280;34665;51.886;5.436;2023-02-14T08:55:05;103249.13;;;15.84;80.57
48846;BME280;34665;51.886;5.436;2023-02-14T08:57:31;103250.81;;;16.02;78.84
48846;BME280;34665;51.886;5.436;2023-02-14T08:59:57;103250.13;;;16.80;75.41
48846;BME280;34665;51.886;5.436;2023-02-14T09:02:23;103247.25;;;17.13;72.17
48846;BME280;34665;51.886;5.436;2023-02-14T09:04:49;103248.22;;;17.35;70.01
48846;BME280;34665;51.886;5.436;2023-02-14T09:07:15;103252.19;;;18.31;68.10
48846;BME280;34665;51.886;5.436;2023-02-14T09:09:40;103252.75;;;18.63;66.33
48846;BME280;34665;51.886;5.436;2023-02-14T09:12:07;103248.31;;;18.77;64.34
48846;BME280;34665;51.886;5.436;2023-02-14T09:14:38;103253.53;;;19.66;62.30
48846;BME280;34665;51.886;5.436;2023-02-14T09:17:05;103253.06;;;20.26;60.55
48846;BME280;34665;51.886;5.436;2023-02-14T09:19:32;103255.13;;;20.72;58.68
48846;BME280;34665;51.886;5.436;2023-02-14T09:21:59;103245.19;;;21.27;57.24
48846;BME280;34665;51.886;5.436;2023-02-14T09:24:25;103250.19;;;21.37;56.36
48846;BME280;34665;51.886;5.436;2023-02-14T09:26:52;103250.41;;;21.22;56.18
48846;BME280;34665;51.886;5.436;2023-02-14T09:29:19;103255.66;;;21.57;55.59
48846;BME280;34665;51.886;5.436;2023-02-14T09:31:44;103260.03;;;21.78;55.12
48846;BME280;34665;51.886;5.436;2023-02-14T09:34:10;103254.66;;;22.30;54.31
48846;BME280;34665;51.886;5.436;2023-02-14T09:36:54;103253.75;;;22.43;53.63
48846;BME280;34665;51.886;5.436;2023-02-14T09:39:19;103258.28;;;22.95;52.21
48846;BME280;34665;51.886;5.436;2023-02-14T09:42:09;103255.56;;;23.53;51.30
48846;BME280;34665;51.886;5.436;2023-02-14T09:45:00;103258.97;;;23.67;50.40
48846;BME280;34665;51.886;5.436;2023-02-14T09:47:37;103257.72;;;24.25;49.70
48846;BME280;34665;51.886;5.436;2023-02-14T09:50:18;103258.75;;;24.73;48.62
48846;BME280;34665;51.886;5.436;2023-02-14T09:52:49;103247.91;;;23.61;49.58
48846;BME280;34665;51.886;5.436;2023-02-14T09:55:17;103248.22;;;24.46;48.95
48846;BME280;34665;51.886;5.436;2023-02-14T09:58:03;103241.81;;;24.53;48.51
48846;BME280;34665;51.886;5.436;2023-02-14T10:00:41;103240.03;;;24.89;47.99
48846;BME280;34665;51.886;5.436;2023-02-14T10:03:41;103241.28;;;25.88;46.11
48846;BME280;34665;51.886;5.436;2023-02-14T10:09:04;103247.81;;;24.73;46.49
48846;BME280;34665;51.886;5.436;2023-02-14T10:11:32;103246.38;;;25.97;44.96
48846;BME280;34665;51.886;5.436;2023-02-14T10:14:16;103252.75;;;26.14;44.46
48846;BME280;34665;51.886;5.436;2023-02-14T10:17:14;103257.75;;;27.04;42.71
48846;BME280;34665;51.886;5.436;2023-02-14T10:19:55;103254.56;;;27.30;42.02
48846;BME280;34665;51.886;5.436;2023-02-14T10:22:27;103244.69;;;26.95;42.22
48846;BME280;34665;51.886;5.436;2023-02-14T10:25:02;103237.09;;;27.53;41.05
48846;BME280;34665;51.886;5.436;2023-02-14T10:27:36;103241.94;;;27.12;41.23
48846;BME280;34665;51.886;5.436;2023-02-14T10:30:20;103245.59;;;27.00;41.29
48846;BME280;34665;51.886;5.436;2023-02-14T10:36:17;103243.22;;;27.60;40.15
48846;BME280;34665;51.886;5.436;2023-02-14T10:44:46;103236.69;;;28.11;39.47
48846;BME280;34665;51.886;5.436;2023-02-14T10:47:44;103233.59;;;27.80;39.44
48846;BME280;34665;51.886;5.436;2023-02-14T10:51:04;103228.91;;;28.03;39.64
48846;BME280;34665;51.886;5.436;2023-02-14T10:55:44;103240.25;;;30.49;36.17
48846;BME280;34665;51.886;5.436;2023-02-14T10:58:15;103228.47;;;29.85;36.63
48846;BME280;34665;51.886;5.436;2023-02-14T11:00:53;103237.13;;;30.09;36.29
48846;BME280;34665;51.886;5.436;2023-02-14T11:03:21;103246.06;;;30.63;35.26
48846;BME280;34665;51.886;5.436;2023-02-14T11:05:47;103241.13;;;31.22;34.66
48846;BME280;34665;51.886;5.436;2023-02-14T11:10:40;103238.03;;;31.39;34.07
48846;BME280;34665;51.886;5.436;2023-02-14T11:13:25;103232.81;;;30.50;34.56
48846;BME280;34665;51.886;5.436;2023-02-14T11:15:50;103235.59;;;30.65;34.02
48846;BME280;34665;51.886;5.436;2023-02-14T11:18:25;103231.16;;;30.48;34.23
48846;BME280;34665;51.886;5.436;2023-02-14T11:21:02;103225.66;;;30.80;33.85
48846;BME280;34665;51.886;5.436;2023-02-14T11:23:41;103222.88;;;30.85;33.31
48846;BME280;34665;51.886;5.436;2023-02-14T11:28:37;103219.00;;;31.22;33.29
48846;BME280;34665;51.886;5.436;2023-02-14T11:31:09;103213.78;;;32.42;32.92
48846;BME280;34665;51.886;5.436;2023-02-14T11:33:40;103218.91;;;32.59;31.93
48846;BME280;34665;51.886;5.436;2023-02-14T11:36:12;103223.00;;;32.67;31.96
48846;BME280;34665;51.886;5.436;2023-02-14T11:38:40;103213.13;;;33.14;31.10
48846;BME280;34665;51.886;5.436;2023-02-14T11:41:08;103214.47;;;34.09;30.29
48846;BME280;34665;51.886;5.436;2023-02-14T11:43:39;103211.94;;;33.88;30.11
48846;BME280;34665;51.886;5.436;2023-02-14T11:49:02;103211.34;;;34.68;28.79
48846;BME280;34665;51.886;5.436;2023-02-14T11:51:36;103200.19;;;35.15;28.79
48846;BME280;34665;51.886;5.436;2023-02-14T11:54:04;103202.75;;;35.40;28.10
48846;BME280;34665;51.886;5.436;2023-02-14T11:56:51;103187.75;;;34.13;28.32
48846;BME280;34665;51.886;5.436;2023-02-14T11:59:36;103183.16;;;32.92;29.35
48846;BME280;34665;51.886;5.436;2023-02-14T12:05:13;103181.94;;;33.96;28.89
48846;BME280;34665;51.886;5.436;2023-02-14T12:07:42;103174.41;;;34.15;28.43
48846;BME280;34665;51.886;5.436;2023-02-14T12:13:07;103165.91;;;34.26;28.00
48846;BME280;34665;51.886;5.436;2023-02-14T12:15:55;103170.75;;;32.55;29.04
48846;BME280;34665;51.886;5.436;2023-02-14T12:26:23;103146.66;;;33.77;28.79
48846;BME280;34665;51.886;5.436;2023-02-14T12:28:54;103150.31;;;33.29;28.50
48846;BME280;34665;51.886;5.436;2023-02-14T12:31:22;103143.22;;;32.29;29.27
48846;BME280;34665;51.886;5.436;2023-02-14T12:33:47;103133.94;;;32.14;29.36
48846;BME280;34665;51.886;5.436;2023-02-14T12:39:13;103136.88;;;34.18;28.26
48846;BME280;34665;51.886;5.436;2023-02-14T12:41:48;103134.81;;;33.03;27.98
48846;BME280;34665;51.886;5.436;2023-02-14T12:45:01;103126.47;;;32.15;28.63
48846;BME280;34665;51.886;5.436;2023-02-14T12:47:45;103117.94;;;32.11;28.66
48846;BME280;34665;51.886;5.436;2023-02-14T12:50:21;103109.78;;;32.60;28.11
48846;BME280;34665;51.886;5.436;2023-02-14T12:58:12;103099.72;;;33.18;27.92
48846;BME280;34665;51.886;5.436;2023-02-14T13:00:58;103102.00;;;33.35;27.51
48846;BME280;34665;51.886;5.436;2023-02-14T13:11:35;103082.53;;;33.59;27.04
48846;BME280;34665;51.886;5.436;2023-02-14T13:22:04;103077.91;;;35.38;26.42
48846;BME280;34665;51.886;5.436;2023-02-14T13:24:38;103070.88;;;34.90;26.48
48846;BME280;34665;51.886;5.436;2023-02-14T13:27:07;103065.50;;;34.80;26.14
48846;BME280;34665;51.886;5.436;2023-02-14T13:29:46;103065.00;;;34.50;26.74
48846;BME280;34665;51.886;5.436;2023-02-14T13:32:14;103062.53;;;34.15;26.36
48846;BME280;34665;51.886;5.436;2023-02-14T13:34:44;103060.69;;;34.57;25.77
48846;BME280;34665;51.886;5.436;2023-02-14T13:37:12;103060.84;;;34.47;25.94
48846;BME280;34665;51.886;5.436;2023-02-14T13:39:47;103058.31;;;34.79;25.94
48846;BME280;34665;51.886;5.436;2023-02-14T13:42:55;103056.50;;;34.27;25.80
48846;BME280;34665;51.886;5.436;2023-02-14T13:48:10;103044.41;;;35.21;26.00
48846;BME280;34665;51.886;5.436;2023-02-14T13:53:44;103052.22;;;34.91;25.53
48846;BME280;34665;51.886;5.436;2023-02-14T13:58:50;103045.78;;;34.53;25.98
48846;BME280;34665;51.886;5.436;2023-02-14T14:01:44;103039.81;;;34.74;25.26
48846;BME280;34665;51.886;5.436;2023-02-14T14:15:10;103036.44;;;36.51;24.59
48846;BME280;34665;51.886;5.436;2023-02-14T14:22:47;103020.00;;;36.90;24.61
48846;BME280;34665;51.886;5.436;2023-02-14T14:25:29;103023.44;;;36.86;24.33
48846;BME280;34665;51.886;5.436;2023-02-14T14:27:55;103020.34;;;35.84;24.91
48846;BME280;34665;51.886;5.436;2023-02-14T14:30:25;103022.25;;;36.70;24.42
48846;BME280;34665;51.886;5.436;2023-02-14T14:32:54;103020.84;;;36.41;24.35
48846;BME280;34665;51.886;5.436;2023-02-14T14:35:22;103018.88;;;36.10;24.63
48846;BME280;34665;51.886;5.436;2023-02-14T14:37:53;103015.44;;;35.58;24.90
48846;BME280;34665;51.886;5.436;2023-02-14T14:42:52;103011.88;;;36.53;24.08
48846;BME280;34665;51.886;5.436;2023-02-14T14:45:22;103015.41;;;36.44;23.95
48846;BME280;34665;51.886;5.436;2023-02-14T14:47:51;103002.19;;;35.87;24.44
48846;BME280;34665;51.886;5.436;2023-02-14T14:50:21;103004.97;;;33.54;25.91
48846;BME280;34665;51.886;5.436;2023-02-14T14:53:21;102993.25;;;33.19;26.50
48846;BME280;34665;51.886;5.436;2023-02-14T14:55:49;102995.97;;;32.81;26.41
48846;BME280;34665;51.886;5.436;2023-02-14T14:58:37;102999.72;;;33.53;26.24
48846;BME280;34665;51.886;5.436;2023-02-14T15:01:05;103004.50;;;33.99;25.88
48846;BME280;34665;51.886;5.436;2023-02-14T15:03:32;103011.16;;;34.17;25.86